createdAt,value
2018-10-09T00:00:30.154Z,9.56
2018-10-09T00:01:30.149Z,9.57
2018-10-09T00:02:30.111Z,9.64
2018-10-09T00:03:30.109Z,9.63
2018-10-09T00:04:30.107Z,9.60
2018-10-09T00:05:30.100Z,9.60
2018-10-09T00:06:30.128Z,9.43
2018-10-09T00:07:30.101Z,9.48
2018-10-09T00:08:30.094Z,9.43
2018-10-09T00:09:30.093Z,9.46
2018-10-09T00:10:30.117Z,9.39
2018-10-09T00:11:30.085Z,9.32
2018-10-09T00:12:30.087Z,9.27
2018-10-09T00:13:30.078Z,9.06
2018-10-09T00:14:30.078Z,8.90
2018-10-09T00:15:30.106Z,8.87
2018-10-09T00:16:30.070Z,8.87
2018-10-09T00:17:30.074Z,8.90
2018-10-09T00:18:30.066Z,8.88
2018-10-09T00:19:30.062Z,8.96
2018-10-09T00:20:30.094Z,8.96
2018-10-09T00:21:30.058Z,8.97
2018-10-09T00:22:30.056Z,9.01
2018-10-09T00:23:30.054Z,9.04
2018-10-09T00:24:30.051Z,8.88
2018-10-09T00:25:30.075Z,8.91
2018-10-09T00:26:30.070Z,8.75
2018-10-09T00:27:30.039Z,8.90
2018-10-09T00:28:30.035Z,8.93
2018-10-09T00:29:30.031Z,8.91
2018-10-09T00:30:30.031Z,8.91
2018-10-09T00:31:30.055Z,8.87
2018-10-09T00:32:30.021Z,8.84
2018-10-09T00:33:30.019Z,8.90
2018-10-09T00:34:30.015Z,8.69
2018-10-09T00:35:30.017Z,8.71
2018-10-09T00:36:30.045Z,8.69
2018-10-09T00:37:30.007Z,8.71
2018-10-09T00:38:30.007Z,8.75
2018-10-09T00:39:30.004Z,8.75
2018-10-09T00:40:29.996Z,8.66
2018-10-09T00:41:30.025Z,8.62
2018-10-09T00:42:29.995Z,8.58
2018-10-09T00:43:29.992Z,8.58
2018-10-09T00:44:29.988Z,8.55
2018-10-09T00:45:29.981Z,8.57
2018-10-09T00:46:30.008Z,8.48
2018-10-09T00:47:29.975Z,8.51
2018-10-09T00:48:29.974Z,8.51
2018-10-09T00:49:29.972Z,8.65
2018-10-09T00:50:30.025Z,8.84
2018-10-09T00:51:29.968Z,9.01
2018-10-09T00:52:29.961Z,9.04
2018-10-09T00:53:29.962Z,9.06
2018-10-09T00:54:29.957Z,9.09
2018-10-09T00:55:29.983Z,9.12
2018-10-09T00:56:29.945Z,9.12
2018-10-09T00:57:29.973Z,9.35
2018-10-09T00:58:29.950Z,9.28
2018-10-09T00:59:29.941Z,9.48
2018-10-09T01:00:29.968Z,9.67
2018-10-09T01:01:29.934Z,9.61
2018-10-09T01:02:29.936Z,9.64
2018-10-09T01:03:29.924Z,9.60
2018-10-09T01:04:29.926Z,9.49
2018-10-09T01:05:29.950Z,9.49
2018-10-09T01:06:29.920Z,9.50
2018-10-09T01:07:29.933Z,9.42
2018-10-09T01:08:29.917Z,9.40
2018-10-09T01:09:29.916Z,9.27
2018-10-09T01:10:29.935Z,9.27
2018-10-09T01:11:29.904Z,9.21
2018-10-09T01:12:29.906Z,9.21
2018-10-09T01:13:29.901Z,9.28
2018-10-09T01:14:29.897Z,9.24
2018-10-09T01:15:29.918Z,9.18
2018-10-09T01:16:29.894Z,9.06
2018-10-09T01:17:29.887Z,9.18
2018-10-09T01:18:29.885Z,9.10
2018-10-09T01:19:29.879Z,9.04
2018-10-09T01:20:29.901Z,9.06
2018-10-09T01:21:29.875Z,9.12
2018-10-09T01:22:29.908Z,9.15
2018-10-09T01:23:29.869Z,9.04
2018-10-09T01:24:29.874Z,9.02
2018-10-09T01:25:29.864Z,9.15
2018-10-09T01:26:29.885Z,9.05
2018-10-09T01:27:29.856Z,8.94
2018-10-09T01:28:29.850Z,8.91
2018-10-09T01:29:29.852Z,8.94
2018-10-09T01:30:29.877Z,9.04
2018-10-09T01:31:29.849Z,9.10
2018-10-09T01:32:29.873Z,9.15
2018-10-09T01:33:29.841Z,9.13
2018-10-09T01:34:29.842Z,9.09
2018-10-09T01:35:29.848Z,9.13
2018-10-09T01:36:29.855Z,9.09
2018-10-09T01:37:29.828Z,8.99
2018-10-09T01:38:29.825Z,8.88
2018-10-09T01:39:29.821Z,8.86
2018-10-09T01:40:29.845Z,8.75
2018-10-09T01:41:29.815Z,8.79
2018-10-09T01:42:29.810Z,8.76
2018-10-09T01:43:29.814Z,8.73
2018-10-09T01:44:29.807Z,8.72
2018-10-09T01:45:29.833Z,8.63
2018-10-09T01:46:29.799Z,8.66
2018-10-09T01:47:29.789Z,8.63
2018-10-09T01:48:29.795Z,8.62
2018-10-09T01:49:29.793Z,8.54
2018-10-09T01:50:29.810Z,8.55
2018-10-09T01:51:29.783Z,8.63
2018-10-09T01:52:29.806Z,8.57
2018-10-09T01:53:29.781Z,8.62
2018-10-09T01:54:29.774Z,8.60
2018-10-09T01:55:29.798Z,8.63
2018-10-09T01:56:29.769Z,8.53
2018-10-09T01:57:29.798Z,8.57
2018-10-09T01:58:29.762Z,8.51
2018-10-09T01:59:29.760Z,8.48
2018-10-09T02:00:29.756Z,8.45
2018-10-09T02:01:29.780Z,8.47
2018-10-09T02:02:29.754Z,8.48
2018-10-09T02:03:29.740Z,8.55
2018-10-09T02:04:29.743Z,8.60
2018-10-09T02:05:29.741Z,8.63
2018-10-09T02:06:29.763Z,8.66
2018-10-09T02:07:29.734Z,8.60
2018-10-09T02:08:29.733Z,8.54
2018-10-09T02:09:29.728Z,8.68
2018-10-09T02:10:29.724Z,8.53
2018-10-09T02:11:29.748Z,8.57
2018-10-09T02:12:29.719Z,8.63
2018-10-09T02:13:29.712Z,8.66
2018-10-09T02:14:29.710Z,8.71
2018-10-09T02:15:29.713Z,8.72
2018-10-09T02:16:29.733Z,8.76
2018-10-09T02:17:29.702Z,8.81
2018-10-09T02:18:29.701Z,8.72
2018-10-09T02:19:29.692Z,8.69
2018-10-09T02:20:29.702Z,8.62
2018-10-09T02:21:29.718Z,8.65
2018-10-09T02:22:29.683Z,8.65
2018-10-09T02:23:29.681Z,8.58
2018-10-09T02:24:29.673Z,8.44
2018-10-09T02:25:29.678Z,8.35
2018-10-09T02:26:29.704Z,8.25
2018-10-09T02:27:29.696Z,8.20
2018-10-09T02:28:29.672Z,8.04
2018-10-09T02:29:29.662Z,8.02
2018-10-09T02:30:29.660Z,8.04
2018-10-09T02:31:29.656Z,8.02
2018-10-09T02:32:29.683Z,7.97
2018-10-09T02:33:29.738Z,7.93
2018-10-09T02:34:29.647Z,7.93
2018-10-09T02:35:29.645Z,7.84
2018-10-09T02:36:29.643Z,7.85
2018-10-09T02:37:29.663Z,7.92
2018-10-09T02:38:29.635Z,7.87
2018-10-09T02:39:29.632Z,7.84
2018-10-09T02:40:29.628Z,7.82
2018-10-09T02:41:29.654Z,7.84
2018-10-09T02:42:29.620Z,7.89
2018-10-09T02:43:29.615Z,7.89
2018-10-09T02:44:29.618Z,7.85
2018-10-09T02:45:29.611Z,7.81
2018-10-09T02:46:29.635Z,7.62
2018-10-09T02:47:29.603Z,7.66
2018-10-09T02:48:29.600Z,7.72
2018-10-09T02:49:29.600Z,7.90
2018-10-09T02:50:29.596Z,7.99
2018-10-09T02:51:29.639Z,7.93
2018-10-09T02:52:29.589Z,7.99
2018-10-09T02:53:29.584Z,7.93
2018-10-09T02:54:29.581Z,7.94
2018-10-09T02:55:29.576Z,7.87
2018-10-09T02:56:29.605Z,7.82
2018-10-09T02:57:29.572Z,7.93
2018-10-09T02:58:29.562Z,8.00
2018-10-09T02:59:29.566Z,8.15
2018-10-09T03:00:29.589Z,8.07
2018-10-09T03:01:29.553Z,7.96
2018-10-09T03:02:29.583Z,7.99
2018-10-09T03:03:29.549Z,8.02
2018-10-09T03:04:29.545Z,7.89
2018-10-09T03:05:29.541Z,7.81
2018-10-09T03:06:29.565Z,7.84
2018-10-09T03:07:29.535Z,7.85
2018-10-09T03:08:29.540Z,7.84
2018-10-09T03:09:29.530Z,7.81
2018-10-09T03:10:29.560Z,7.85
2018-10-09T03:11:29.519Z,7.81
2018-10-09T03:12:29.520Z,7.82
2018-10-09T03:13:29.542Z,7.89
2018-10-09T03:14:29.516Z,7.94
2018-10-09T03:15:29.504Z,7.94
2018-10-09T03:16:29.535Z,7.90
2018-10-09T03:17:29.504Z,7.94
2018-10-09T03:18:29.497Z,7.93
2018-10-09T03:19:29.635Z,7.92
2018-10-09T03:20:29.525Z,7.82
2018-10-09T03:21:29.515Z,7.85
2018-10-09T03:22:29.483Z,7.67
2018-10-09T03:23:29.479Z,7.67
2018-10-09T03:24:29.479Z,7.69
2018-10-09T03:25:29.476Z,7.63
2018-10-09T03:26:29.507Z,7.66
2018-10-09T03:27:29.466Z,7.67
2018-10-09T03:28:29.462Z,7.67
2018-10-09T03:29:29.461Z,7.63
2018-10-09T03:30:29.459Z,7.63
2018-10-09T03:31:29.484Z,7.66
2018-10-09T03:32:29.448Z,7.71
2018-10-09T03:33:29.444Z,7.71
2018-10-09T03:34:29.444Z,7.74
2018-10-09T03:35:29.440Z,7.67
2018-10-09T03:36:29.463Z,7.78
2018-10-09T03:37:29.429Z,7.66
2018-10-09T03:38:29.433Z,7.66
2018-10-09T03:39:29.424Z,7.77
2018-10-09T03:40:29.421Z,7.63
2018-10-09T03:41:29.444Z,7.63
2018-10-09T03:42:29.416Z,7.47
2018-10-09T03:43:29.414Z,7.37
2018-10-09T03:44:29.405Z,7.47
2018-10-09T03:45:29.404Z,7.37
2018-10-09T03:46:29.428Z,7.44
2018-10-09T03:47:29.396Z,7.47
2018-10-09T03:48:29.394Z,7.45
2018-10-09T03:49:29.389Z,7.37
2018-10-09T03:50:29.385Z,7.37
2018-10-09T03:51:29.409Z,7.20
2018-10-09T03:52:29.376Z,7.19
2018-10-09T03:53:29.378Z,7.04
2018-10-09T03:54:29.412Z,7.08
2018-10-09T03:55:29.366Z,7.15
2018-10-09T03:56:29.389Z,7.23
2018-10-09T03:57:29.362Z,7.29
2018-10-09T03:58:29.358Z,7.31
2018-10-09T03:59:29.350Z,7.27
2018-10-09T04:00:29.353Z,7.35
2018-10-09T04:01:29.385Z,7.32
2018-10-09T04:02:29.342Z,7.41
2018-10-09T04:03:29.339Z,7.52
2018-10-09T04:04:29.334Z,7.45
2018-10-09T04:05:29.335Z,7.49
2018-10-09T04:06:29.359Z,7.53
2018-10-09T04:07:29.323Z,7.63
2018-10-09T04:08:29.319Z,7.60
2018-10-09T04:09:29.367Z,7.56
2018-10-09T04:10:29.314Z,7.62
2018-10-09T04:11:29.340Z,7.50
2018-10-09T04:12:29.320Z,7.47
2018-10-09T04:13:34.276Z,7.58
2018-10-09T04:14:29.299Z,7.55
2018-10-09T04:15:29.290Z,7.63
2018-10-09T04:16:29.323Z,7.74
2018-10-09T04:17:29.289Z,7.75
2018-10-09T04:18:29.313Z,7.81
2018-10-09T04:19:29.283Z,7.78
2018-10-09T04:20:29.271Z,7.87
2018-10-09T04:21:29.277Z,7.89
2018-10-09T04:22:29.296Z,7.87
2018-10-09T04:23:29.265Z,7.92
2018-10-09T04:24:29.263Z,7.94
2018-10-09T04:25:29.260Z,7.81
2018-10-09T04:26:29.265Z,7.89
2018-10-09T04:27:29.279Z,7.89
2018-10-09T04:28:29.248Z,7.85
2018-10-09T04:29:29.329Z,7.94
2018-10-09T04:30:29.240Z,7.93
2018-10-09T04:31:29.245Z,7.93
2018-10-09T04:32:29.261Z,7.90
2018-10-09T04:33:29.229Z,7.99
2018-10-09T04:34:29.232Z,8.04
2018-10-09T04:35:29.233Z,8.10
2018-10-09T04:36:29.221Z,8.14
2018-10-09T04:37:29.244Z,8.15
2018-10-09T04:38:29.212Z,8.12
2018-10-09T04:39:29.212Z,8.14
2018-10-09T04:40:29.205Z,8.04
2018-10-09T04:41:29.201Z,7.99
2018-10-09T04:42:29.368Z,8.04
2018-10-09T04:43:29.215Z,7.96
2018-10-09T04:44:29.195Z,8.03
2018-10-09T04:45:29.265Z,7.96
2018-10-09T04:46:29.190Z,7.89
2018-10-09T04:47:29.210Z,7.96
2018-10-09T04:48:29.178Z,7.92
2018-10-09T04:49:29.171Z,7.82
2018-10-09T04:50:29.174Z,7.85
2018-10-09T04:51:29.169Z,7.84
2018-10-09T04:52:29.191Z,7.79
2018-10-09T04:53:29.162Z,7.85
2018-10-09T04:54:29.158Z,7.84
2018-10-09T04:55:29.154Z,7.82
2018-10-09T04:56:29.149Z,7.84
2018-10-09T04:57:30.683Z,7.93
2018-10-09T04:58:29.144Z,7.87
2018-10-09T04:59:29.139Z,7.90
2018-10-09T05:00:29.153Z,7.96
2018-10-09T05:01:29.135Z,7.97
2018-10-09T05:02:29.164Z,7.99
2018-10-09T05:03:29.129Z,7.94
2018-10-09T05:04:29.125Z,7.93
2018-10-09T05:05:29.119Z,8.14
2018-10-09T05:06:29.904Z,8.07
2018-10-09T05:07:31.222Z,8.03
2018-10-09T05:08:31.084Z,8.18
2018-10-09T05:09:30.966Z,8.12
2018-10-09T05:10:29.110Z,8.22
2018-10-09T05:11:29.100Z,8.29
2018-10-09T05:12:29.125Z,8.30
2018-10-09T05:13:29.094Z,8.26
2018-10-09T05:14:29.084Z,8.35
2018-10-09T05:15:29.084Z,8.25
2018-10-09T05:16:29.080Z,8.20
2018-10-09T05:17:29.104Z,8.07
2018-10-09T05:18:29.076Z,7.92
2018-10-09T05:19:29.095Z,7.97
2018-10-09T05:20:29.072Z,7.85
2018-10-09T05:21:29.065Z,7.77
2018-10-09T05:22:29.066Z,7.78
2018-10-09T05:23:29.084Z,7.69
2018-10-09T05:24:34.183Z,7.79
2018-10-09T05:25:29.721Z,7.78
2018-10-09T05:26:32.319Z,7.56
2018-10-09T05:27:29.073Z,7.38
2018-10-09T05:28:30.192Z,7.23
2018-10-09T05:29:29.073Z,7.13
2018-10-09T05:30:31.210Z,7.05
2018-10-09T05:31:32.204Z,6.95
2018-10-09T05:32:30.198Z,7.04
2018-10-09T05:33:32.390Z,7.22
2018-10-09T05:34:29.053Z,7.37
2018-10-09T05:35:29.018Z,7.34
2018-10-09T05:36:29.014Z,7.44
2018-10-09T05:37:29.062Z,7.32
2018-10-09T05:38:29.687Z,7.60
2018-10-09T05:39:29.299Z,7.59
2018-10-09T05:40:29.258Z,7.47
2018-10-09T05:41:33.013Z,7.49
2018-10-09T05:42:30.684Z,7.35
2018-10-09T05:43:31.267Z,7.38
2018-10-09T05:44:29.229Z,7.34
2018-10-09T05:45:28.981Z,7.29
2018-10-09T05:46:29.012Z,7.31
2018-10-09T05:47:28.964Z,7.37
2018-10-09T05:48:28.999Z,7.37
2018-10-09T05:49:29.006Z,7.53
2018-10-09T05:50:29.168Z,7.59
2018-10-09T05:51:28.971Z,7.62
2018-10-09T05:52:29.009Z,7.82
2018-10-09T05:53:28.967Z,7.97
2018-10-09T05:54:28.961Z,8.03
2018-10-09T05:55:28.945Z,7.99
2018-10-09T05:56:28.978Z,8.12
2018-10-09T05:57:28.942Z,8.00
2018-10-09T05:58:28.941Z,8.03
2018-10-09T05:59:28.971Z,8.17
2018-10-09T06:00:28.939Z,8.21
2018-10-09T06:01:28.938Z,8.28
2018-10-09T06:02:28.965Z,8.20
2018-10-09T06:03:28.919Z,8.26
2018-10-09T06:04:28.926Z,8.35
2018-10-09T06:05:28.917Z,8.30
2018-10-09T06:06:28.952Z,8.42
2018-10-09T06:07:28.910Z,8.51
2018-10-09T06:08:28.937Z,8.62
2018-10-09T06:09:28.908Z,8.69
2018-10-09T06:10:28.907Z,8.81
2018-10-09T06:11:28.903Z,8.81
2018-10-09T06:12:28.922Z,9.02
2018-10-09T06:13:28.899Z,9.23
2018-10-09T06:14:28.879Z,9.52
2018-10-09T06:15:28.974Z,9.61
2018-10-09T06:16:28.883Z,9.71
2018-10-09T06:17:28.907Z,9.67
2018-10-09T06:18:28.879Z,9.82
2018-10-09T06:19:28.873Z,9.82
2018-10-09T06:20:28.877Z,9.83
2018-10-09T06:21:28.876Z,9.86
2018-10-09T06:22:28.922Z,9.64
2018-10-09T06:23:28.875Z,9.75
2018-10-09T06:24:28.870Z,9.85
2018-10-09T06:25:28.860Z,9.83
2018-10-09T06:26:28.892Z,9.75
2018-10-09T06:27:28.861Z,9.75
2018-10-09T06:28:28.974Z,9.73
2018-10-09T06:29:28.858Z,9.81
2018-10-09T06:30:28.859Z,9.99
2018-10-09T06:31:28.866Z,10.09
2018-10-09T06:32:28.843Z,10.19
2018-10-09T06:33:28.848Z,10.40
2018-10-09T06:34:28.837Z,10.39
2018-10-09T06:35:28.835Z,10.52
2018-10-09T06:36:28.867Z,10.60
2018-10-09T06:37:28.836Z,10.60
2018-10-09T06:38:28.833Z,10.84
2018-10-09T06:39:28.834Z,11.25
2018-10-09T06:40:28.881Z,11.21
2018-10-09T06:41:28.860Z,11.41
2018-10-09T06:42:28.826Z,11.38
2018-10-09T06:43:28.823Z,11.57
2018-10-09T06:44:28.821Z,11.65
2018-10-09T06:45:28.828Z,11.44
2018-10-09T06:46:28.871Z,11.29
2018-10-09T06:47:28.867Z,11.35
2018-10-09T06:48:28.817Z,11.47
2018-10-09T06:49:28.823Z,11.56
2018-10-09T06:50:28.816Z,11.64
2018-10-09T06:51:28.848Z,11.78
2018-10-09T06:52:28.817Z,11.78
2018-10-09T06:53:28.832Z,11.83
2018-10-09T06:54:28.839Z,11.59
2018-10-09T06:55:28.814Z,11.70
2018-10-09T06:56:28.845Z,11.82
2018-10-09T06:57:28.813Z,11.80
2018-10-09T06:58:28.813Z,11.94
2018-10-09T06:59:28.813Z,12.06
2018-10-09T07:00:28.819Z,12.20
2018-10-09T07:01:28.848Z,12.42
2018-10-09T07:02:28.814Z,12.34
2018-10-09T07:03:28.814Z,12.33
2018-10-09T07:04:28.812Z,12.42
2018-10-09T07:05:28.813Z,12.77
2018-10-09T07:06:28.898Z,12.89
2018-10-09T07:07:28.817Z,13.20
2018-10-09T07:08:28.814Z,13.51
2018-10-09T07:09:28.815Z,13.89
2018-10-09T07:10:28.813Z,14.19
2018-10-09T07:11:28.845Z,14.44
2018-10-09T07:12:28.818Z,14.52
2018-10-09T07:13:28.814Z,14.53
2018-10-09T07:14:28.814Z,14.29
2018-10-09T07:15:28.815Z,14.17
2018-10-09T07:16:28.843Z,14.19
2018-10-09T07:17:28.825Z,13.95
2018-10-09T07:18:28.820Z,13.92
2018-10-09T07:19:28.816Z,13.81
2018-10-09T07:20:28.821Z,13.62
2018-10-09T07:21:28.850Z,13.59
2018-10-09T07:22:28.822Z,13.58
2018-10-09T07:23:28.824Z,13.40
2018-10-09T07:24:28.823Z,13.20
2018-10-09T07:25:28.833Z,13.22
2018-10-09T07:26:28.852Z,13.11
2018-10-09T07:27:28.820Z,13.03
2018-10-09T07:28:28.828Z,13.02
2018-10-09T07:29:28.825Z,12.85
2018-10-09T07:30:28.858Z,12.89
2018-10-09T07:31:28.876Z,12.89
2018-10-09T07:32:28.824Z,12.89
2018-10-09T07:33:28.828Z,13.17
2018-10-09T07:34:28.828Z,13.24
2018-10-09T07:35:28.860Z,13.43
2018-10-09T07:36:28.832Z,13.61
2018-10-09T07:37:28.839Z,13.73
2018-10-09T07:38:28.833Z,14.14
2018-10-09T07:39:28.832Z,14.38
2018-10-09T07:40:28.860Z,14.65
2018-10-09T07:41:28.837Z,14.93
2018-10-09T07:42:28.836Z,15.27
2018-10-09T07:43:28.839Z,15.72
2018-10-09T07:44:28.838Z,16.11
2018-10-09T07:45:28.870Z,16.49
2018-10-09T07:46:28.837Z,16.81
2018-10-09T07:47:28.844Z,16.96
2018-10-09T07:48:28.843Z,16.81
2018-10-09T07:49:28.879Z,16.83
2018-10-09T07:50:28.853Z,16.81
2018-10-09T07:51:28.881Z,16.83
2018-10-09T07:52:29.834Z,16.70
2018-10-09T07:53:28.865Z,16.75
2018-10-09T07:54:28.861Z,16.49
2018-10-09T07:55:28.867Z,16.45
2018-10-09T07:56:28.898Z,16.52
2018-10-09T07:57:28.905Z,16.52
2018-10-09T07:58:28.896Z,16.48
2018-10-09T07:59:28.879Z,16.48
2018-10-09T08:00:28.883Z,16.48
2018-10-09T08:01:28.914Z,16.58
2018-10-09T08:02:28.896Z,16.42
2018-10-09T08:03:28.895Z,16.42
2018-10-09T08:04:28.900Z,16.50
2018-10-09T08:05:28.908Z,16.68
2018-10-09T08:06:28.938Z,16.68
2018-10-09T08:07:28.911Z,16.62
2018-10-09T08:08:28.915Z,16.68
2018-10-09T08:09:28.921Z,16.59
2018-10-09T08:10:29.003Z,15.94
2018-10-09T08:11:28.953Z,15.94
2018-10-09T08:12:29.043Z,16.06
2018-10-09T08:13:28.943Z,16.26
2018-10-09T08:14:28.937Z,16.73
2018-10-09T08:15:29.192Z,16.80
2018-10-09T08:16:29.031Z,16.83
2018-10-09T08:17:28.951Z,16.81
2018-10-09T08:18:28.956Z,17.04
2018-10-09T08:19:28.957Z,17.17
2018-10-09T08:20:28.961Z,17.35
2018-10-09T08:21:29.379Z,17.36
2018-10-09T08:22:29.805Z,17.38
2018-10-09T08:23:28.980Z,17.29
2018-10-09T08:24:28.991Z,17.11
2018-10-09T08:25:28.992Z,17.06
2018-10-09T08:26:29.022Z,17.14
2018-10-09T08:27:29.000Z,17.07
2018-10-09T08:28:29.709Z,17.14
2018-10-09T08:29:29.013Z,17.20
2018-10-09T08:30:29.043Z,16.92
2018-10-09T08:31:29.017Z,16.71
2018-10-09T08:32:29.058Z,16.89
2018-10-09T08:33:29.030Z,17.07
2018-10-09T08:34:29.048Z,17.32
2018-10-09T08:35:29.709Z,17.54
2018-10-09T08:36:30.858Z,17.69
2018-10-09T08:37:29.074Z,17.69
2018-10-09T08:38:29.053Z,17.91
2018-10-09T08:39:30.541Z,18.10
2018-10-09T08:40:29.179Z,18.28
2018-10-09T08:41:29.072Z,18.36
2018-10-09T08:42:29.785Z,18.43
2018-10-09T08:43:29.078Z,18.42
2018-10-09T08:44:29.086Z,18.68
2018-10-09T08:45:29.122Z,18.99
2018-10-09T08:46:29.096Z,19.28
2018-10-09T08:47:29.102Z,19.63
2018-10-09T08:48:29.143Z,19.87
2018-10-09T08:49:29.130Z,19.68
2018-10-09T08:50:29.123Z,19.32
2018-10-09T08:51:29.131Z,19.32
2018-10-09T08:52:29.139Z,19.70
2018-10-09T08:53:29.172Z,20.00
2018-10-09T08:54:29.154Z,20.12
2018-10-09T08:55:29.479Z,20.38
2018-10-09T08:56:29.163Z,20.47
2018-10-09T08:57:29.245Z,20.46
2018-10-09T08:58:29.212Z,20.35
2018-10-09T08:59:29.195Z,20.56
2018-10-09T09:00:29.201Z,20.58
2018-10-09T09:01:29.215Z,20.84
2018-10-09T09:02:29.226Z,20.86
2018-10-09T09:03:29.300Z,20.89
2018-10-09T09:04:29.240Z,21.11
2018-10-09T09:05:29.245Z,21.14
2018-10-09T09:06:29.264Z,21.09
2018-10-09T09:07:29.264Z,21.23
2018-10-09T09:08:29.297Z,20.74
2018-10-09T09:09:29.301Z,20.25
2018-10-09T09:10:29.297Z,19.58
2018-10-09T09:11:29.327Z,18.68
2018-10-09T09:12:29.310Z,18.52
2018-10-09T09:13:29.352Z,18.59
2018-10-09T09:14:29.328Z,18.80
2018-10-09T09:15:29.447Z,18.97
2018-10-09T09:16:29.343Z,19.35
2018-10-09T09:17:29.355Z,19.65
2018-10-09T09:18:29.389Z,19.80
2018-10-09T09:19:29.374Z,19.98
2018-10-09T09:20:29.424Z,19.94
2018-10-09T09:21:29.387Z,19.94
2018-10-09T09:22:29.398Z,19.94
2018-10-09T09:23:29.430Z,19.69
2018-10-09T09:24:29.411Z,19.70
2018-10-09T09:25:29.418Z,19.50
2018-10-09T09:26:29.495Z,19.57
2018-10-09T09:27:29.524Z,19.43
2018-10-09T09:28:29.471Z,19.15
2018-10-09T09:29:29.454Z,18.47
2018-10-09T09:30:29.461Z,18.36
2018-10-09T09:31:29.459Z,18.25
2018-10-09T09:32:29.604Z,18.03
2018-10-09T09:33:29.504Z,17.84
2018-10-09T09:34:29.485Z,17.73
2018-10-09T09:35:29.498Z,17.87
2018-10-09T09:36:29.523Z,18.12
2018-10-09T09:37:29.504Z,18.50
2018-10-09T09:38:30.337Z,18.73
2018-10-09T09:39:29.543Z,19.23
2018-10-09T09:40:29.523Z,19.39
2018-10-09T09:41:29.530Z,19.38
2018-10-09T09:42:29.536Z,19.54
2018-10-09T09:43:29.545Z,19.51
2018-10-09T09:44:29.577Z,19.20
2018-10-09T09:45:30.385Z,18.99
2018-10-09T09:46:29.571Z,18.42
2018-10-09T09:47:29.572Z,17.97
2018-10-09T09:48:29.609Z,17.76
2018-10-09T09:49:29.581Z,17.51
2018-10-09T09:50:29.589Z,17.48
2018-10-09T09:51:30.476Z,17.63
2018-10-09T09:52:29.601Z,17.78
2018-10-09T09:53:29.648Z,17.64
2018-10-09T09:54:29.614Z,17.63
2018-10-09T09:55:29.621Z,17.76
2018-10-09T09:56:29.628Z,18.02
2018-10-09T09:57:29.631Z,17.85
2018-10-09T09:58:29.756Z,17.81
2018-10-09T09:59:29.642Z,18.00
2018-10-09T10:00:29.658Z,18.36
2018-10-09T10:01:29.656Z,18.72
2018-10-09T10:02:29.665Z,18.99
2018-10-09T10:03:29.733Z,19.18
2018-10-09T10:04:29.679Z,19.15
2018-10-09T10:05:29.678Z,19.05
2018-10-09T10:06:29.683Z,18.74
2018-10-09T10:07:29.690Z,18.52
2018-10-09T10:08:29.723Z,18.15
2018-10-09T10:09:29.705Z,18.06
2018-10-09T10:10:29.711Z,17.87
2018-10-09T10:11:29.712Z,18.12
2018-10-09T10:12:29.836Z,18.58
2018-10-09T10:13:29.724Z,18.79
2018-10-09T10:14:29.731Z,19.08
2018-10-09T10:15:29.736Z,19.21
2018-10-09T10:16:29.747Z,19.42
2018-10-09T10:17:29.776Z,19.40
2018-10-09T10:18:29.756Z,19.15
2018-10-09T10:19:29.764Z,19.15
2018-10-09T10:20:29.772Z,19.02
2018-10-09T10:21:29.822Z,18.64
2018-10-09T10:22:29.824Z,18.27
2018-10-09T10:23:29.793Z,18.03
2018-10-09T10:24:29.800Z,18.21
2018-10-09T10:25:30.380Z,18.17
2018-10-09T10:26:29.849Z,18.27
2018-10-09T10:27:29.876Z,18.18
2018-10-09T10:28:29.885Z,18.49
2018-10-09T10:29:29.847Z,18.54
2018-10-09T10:30:29.852Z,18.58
2018-10-09T10:31:29.855Z,18.74
2018-10-09T10:32:29.863Z,19.10
2018-10-09T10:33:29.903Z,19.36
2018-10-09T10:34:29.879Z,19.39
2018-10-09T10:35:29.901Z,19.69
2018-10-09T10:36:29.905Z,19.61
2018-10-09T10:37:29.906Z,20.18
2018-10-09T10:38:29.938Z,20.51
2018-10-09T10:39:29.922Z,20.81
2018-10-09T10:40:29.929Z,21.39
2018-10-09T10:41:29.946Z,21.78
2018-10-09T10:42:29.951Z,22.13
2018-10-09T10:43:29.987Z,22.01
2018-10-09T10:44:29.974Z,21.32
2018-10-09T10:45:30.134Z,21.51
2018-10-09T10:46:29.995Z,21.72
2018-10-09T10:47:30.031Z,22.16
2018-10-09T10:48:30.017Z,21.94
2018-10-09T10:49:30.059Z,21.97
2018-10-09T10:50:30.048Z,22.68
2018-10-09T10:51:30.052Z,23.02
2018-10-09T10:52:30.099Z,22.53
2018-10-09T10:53:30.082Z,22.46
2018-10-09T10:54:30.086Z,22.72
2018-10-09T10:55:30.104Z,22.90
2018-10-09T10:56:30.123Z,23.22
2018-10-09T10:57:30.211Z,23.71
2018-10-09T10:58:30.149Z,24.17
2018-10-09T10:59:30.166Z,24.39
2018-10-09T11:00:30.180Z,23.46
2018-10-09T11:01:30.232Z,23.42
2018-10-09T11:02:30.238Z,23.57
2018-10-09T11:03:30.218Z,23.97
2018-10-09T11:04:30.237Z,24.17
2018-10-09T11:05:30.248Z,24.14
2018-10-09T11:06:30.262Z,24.42
2018-10-09T11:07:30.298Z,24.49
2018-10-09T11:08:30.319Z,24.67
2018-10-09T11:09:30.303Z,24.44
2018-10-09T11:10:30.317Z,24.39
2018-10-09T11:11:30.327Z,24.88
2018-10-09T11:12:30.370Z,24.52
2018-10-09T11:13:30.359Z,24.42
2018-10-09T11:14:30.384Z,24.14
2018-10-09T11:15:30.387Z,24.12
2018-10-09T11:16:30.403Z,24.20
2018-10-09T11:17:30.440Z,24.17
2018-10-09T11:18:30.431Z,24.54
2018-10-09T11:19:30.443Z,25.10
2018-10-09T11:20:30.459Z,25.62
2018-10-09T11:21:30.484Z,26.05
2018-10-09T11:22:30.515Z,26.65
2018-10-09T11:23:30.504Z,26.86
2018-10-09T11:24:30.513Z,27.09
2018-10-09T11:25:30.534Z,27.20
2018-10-09T11:26:30.548Z,27.39
2018-10-09T11:27:30.588Z,27.71
2018-10-09T11:28:30.603Z,27.86
2018-10-09T11:29:30.592Z,27.86
2018-10-09T11:30:30.603Z,27.85
2018-10-09T11:31:30.624Z,28.04
2018-10-09T11:32:30.678Z,27.58
2018-10-09T11:33:30.661Z,27.62
2018-10-09T11:34:30.676Z,27.85
2018-10-09T11:35:30.727Z,27.43
2018-10-09T11:36:30.708Z,26.99
2018-10-09T11:37:30.785Z,26.17
2018-10-09T11:38:30.774Z,25.37
2018-10-09T11:39:30.761Z,25.50
2018-10-09T11:40:30.779Z,25.89
2018-10-09T11:41:30.802Z,26.18
2018-10-09T11:42:30.849Z,26.40
2018-10-09T11:43:30.830Z,25.83
2018-10-09T11:44:30.875Z,26.05
2018-10-09T11:45:30.863Z,26.50
2018-10-09T11:46:30.888Z,26.84
2018-10-09T11:47:30.906Z,25.89
2018-10-09T11:48:30.950Z,24.80
2018-10-09T11:49:30.937Z,24.29
2018-10-09T11:50:30.964Z,24.04
2018-10-09T11:51:30.978Z,23.94
2018-10-09T11:52:30.998Z,24.04
2018-10-09T11:53:31.055Z,24.56
2018-10-09T11:54:31.036Z,25.39
2018-10-09T11:55:31.058Z,26.08
2018-10-09T11:56:31.075Z,26.95
2018-10-09T11:57:31.091Z,26.98
2018-10-09T11:58:31.159Z,26.36
2018-10-09T11:59:31.131Z,25.46
2018-10-09T12:00:31.154Z,24.20
2018-10-09T12:01:31.780Z,24.32
2018-10-09T12:02:31.280Z,24.02
2018-10-09T12:03:32.785Z,23.67
2018-10-09T12:04:31.230Z,23.64
2018-10-09T12:05:33.035Z,23.89
2018-10-09T12:06:31.277Z,24.32
2018-10-09T12:07:31.281Z,25.16
2018-10-09T12:08:31.343Z,26.20
2018-10-09T12:09:31.326Z,27.17
2018-10-09T12:10:31.348Z,27.91
2018-10-09T12:11:31.361Z,28.51
2018-10-09T12:12:31.914Z,27.62
2018-10-09T12:13:31.460Z,25.87
2018-10-09T12:14:31.418Z,25.28
2018-10-09T12:15:31.462Z,24.90
2018-10-09T12:16:31.462Z,25.28
2018-10-09T12:17:31.506Z,25.82
2018-10-09T12:18:31.500Z,26.72
2018-10-09T12:19:31.519Z,27.62
2018-10-09T12:20:31.545Z,27.89
2018-10-09T12:21:32.444Z,28.36
2018-10-09T12:22:31.605Z,28.77
2018-10-09T12:23:31.621Z,28.88
2018-10-09T12:24:31.635Z,26.98
2018-10-09T12:25:31.639Z,25.53
2018-10-09T12:26:31.655Z,25.06
2018-10-09T12:27:31.708Z,24.92
2018-10-09T12:28:31.721Z,24.02
2018-10-09T12:29:31.716Z,23.76
2018-10-09T12:30:31.736Z,24.14
2018-10-09T12:31:31.757Z,23.62
2018-10-09T12:32:31.800Z,24.04
2018-10-09T12:33:31.827Z,25.12
2018-10-09T12:34:31.816Z,26.15
2018-10-09T12:35:31.833Z,27.10
2018-10-09T12:36:31.853Z,27.05
2018-10-09T12:37:31.901Z,27.48
2018-10-09T12:38:31.964Z,28.06
2018-10-09T12:39:31.915Z,27.85
2018-10-09T12:40:31.930Z,26.31
2018-10-09T12:41:31.950Z,25.28
2018-10-09T12:42:31.998Z,25.46
2018-10-09T12:43:31.990Z,25.74
2018-10-09T12:44:32.018Z,26.05
2018-10-09T12:45:32.030Z,26.77
2018-10-09T12:46:32.044Z,26.72
2018-10-09T12:47:32.094Z,25.43
2018-10-09T12:48:32.111Z,24.16
2018-10-09T12:49:32.108Z,23.98
2018-10-09T12:50:32.124Z,23.77
2018-10-09T12:51:32.143Z,24.47
2018-10-09T12:52:32.188Z,25.20
2018-10-09T12:53:32.215Z,26.02
2018-10-09T12:54:32.202Z,26.84
2018-10-09T12:55:32.220Z,26.57
2018-10-09T12:56:32.240Z,25.94
2018-10-09T12:57:32.288Z,25.02
2018-10-09T12:58:32.371Z,24.71
2018-10-09T12:59:32.297Z,24.23
2018-10-09T13:00:32.318Z,24.04
2018-10-09T13:01:32.343Z,24.02
2018-10-09T13:02:32.385Z,23.83
2018-10-09T13:03:32.397Z,23.77
2018-10-09T13:04:32.391Z,23.67
2018-10-09T13:05:32.410Z,23.79